createdAt,value
2023-01-17T00:02:09.579Z,8.20
2023-01-17T00:04:56.130Z,8.20
2023-01-17T00:07:43.103Z,8.30
2023-01-17T00:10:19.186Z,8.20
2023-01-17T00:12:48.423Z,8.20
2023-01-17T00:15:17.080Z,8.30
2023-01-17T00:17:44.940Z,8.20
2023-01-17T00:20:34.901Z,8.20
2023-01-17T00:23:24.292Z,8.20
2023-01-17T00:26:04.425Z,8.20
2023-01-17T00:28:33.755Z,8.20
2023-01-17T00:31:02.029Z,8.20
2023-01-17T00:33:29.980Z,8.10
2023-01-17T00:35:58.983Z,8.10
2023-01-17T00:38:27.865Z,8.10
2023-01-17T00:41:01.300Z,8.10
2023-01-17T00:43:47.937Z,8.10
2023-01-17T00:46:34.742Z,8.10
2023-01-17T00:49:21.614Z,8.10
2023-01-17T00:52:07.886Z,8.00
2023-01-17T00:54:54.838Z,8.00
2023-01-17T00:57:41.476Z,8.00
2023-01-17T01:00:28.535Z,8.00
2023-01-17T01:03:15.074Z,8.00
2023-01-17T01:06:01.572Z,7.90
2023-01-17T01:08:48.487Z,7.80
2023-01-17T01:11:37.001Z,7.80
2023-01-17T01:14:23.814Z,7.70
2023-01-17T01:17:09.997Z,7.70
2023-01-17T01:19:56.664Z,7.60
2023-01-17T01:22:43.368Z,7.60
2023-01-17T01:25:29.980Z,7.60
2023-01-17T01:28:26.645Z,7.70
2023-01-17T01:31:13.313Z,7.70
2023-01-17T01:33:41.350Z,7.60
2023-01-17T01:36:09.910Z,7.60
2023-01-17T01:38:38.290Z,7.70
2023-01-17T01:41:06.767Z,7.70
2023-01-17T01:43:48.530Z,7.70
2023-01-17T01:46:18.662Z,7.80
2023-01-17T01:48:52.098Z,7.80
2023-01-17T01:51:22.591Z,7.80
2023-01-17T01:53:52.416Z,7.80
2023-01-17T01:56:23.505Z,7.80
2023-01-17T01:58:52.718Z,7.80
2023-01-17T02:01:20.718Z,7.80
2023-01-17T02:03:49.349Z,7.80
2023-01-17T02:06:24.279Z,7.80
2023-01-17T02:08:52.335Z,7.70
2023-01-17T02:11:20.496Z,7.80
2023-01-17T02:13:48.353Z,7.80
2023-01-17T02:16:16.317Z,7.80
2023-01-17T02:19:02.981Z,7.80
2023-01-17T02:21:38.205Z,7.80
2023-01-17T02:24:06.389Z,7.80
2023-01-17T02:26:51.292Z,7.80
2023-01-17T02:29:45.923Z,7.80
2023-01-17T02:32:22.863Z,7.80
2023-01-17T02:34:54.255Z,7.70
2023-01-17T02:37:25.221Z,7.70
2023-01-17T02:39:56.072Z,7.60
2023-01-17T02:42:28.427Z,7.70
2023-01-17T02:44:56.422Z,7.60
2023-01-17T02:47:24.370Z,7.60
2023-01-17T02:49:57.417Z,7.60
2023-01-17T02:52:44.140Z,7.60
2023-01-17T02:55:18.069Z,7.60
2023-01-17T02:58:01.204Z,7.70
2023-01-17T03:00:44.488Z,7.70
2023-01-17T03:03:23.355Z,7.70
2023-01-17T03:05:54.534Z,7.70
2023-01-17T03:08:22.985Z,7.70
2023-01-17T03:10:50.983Z,7.70
2023-01-17T03:13:18.943Z,7.60
2023-01-17T03:15:47.068Z,7.70
2023-01-17T03:18:15.904Z,7.60
2023-01-17T03:20:43.805Z,7.60
2023-01-17T03:23:11.841Z,7.60
2023-01-17T03:25:39.777Z,7.70
2023-01-17T03:28:07.703Z,7.60
2023-01-17T03:30:35.642Z,7.70
2023-01-17T03:33:03.507Z,7.70
2023-01-17T03:35:31.467Z,7.70
2023-01-17T03:37:59.409Z,7.60
2023-01-17T03:40:27.297Z,7.60
2023-01-17T03:42:55.197Z,7.60
2023-01-17T03:45:23.082Z,7.50
2023-01-17T03:47:51.015Z,7.50
2023-01-17T03:50:18.946Z,7.50
2023-01-17T03:52:46.823Z,7.60
2023-01-17T03:55:14.705Z,7.60
2023-01-17T03:57:42.939Z,7.60
2023-01-17T04:00:11.575Z,7.60
2023-01-17T04:02:39.615Z,7.60
2023-01-17T04:05:07.709Z,7.60
2023-01-17T04:07:35.729Z,7.60
2023-01-17T04:10:03.849Z,7.60
2023-01-17T04:12:31.705Z,7.60
2023-01-17T04:14:59.705Z,7.60
2023-01-17T04:17:27.732Z,7.60
2023-01-17T04:19:55.653Z,7.60
2023-01-17T04:22:23.519Z,7.70
2023-01-17T04:24:51.738Z,7.70
2023-01-17T04:27:19.729Z,7.70
2023-01-17T04:29:48.690Z,7.70
2023-01-17T04:32:16.731Z,7.70
2023-01-17T04:34:44.625Z,7.60
2023-01-17T04:37:12.622Z,7.60
2023-01-17T04:39:40.726Z,7.60
2023-01-17T04:42:08.649Z,7.60
2023-01-17T04:44:36.535Z,7.60
2023-01-17T04:47:04.455Z,7.60
2023-01-17T04:49:32.493Z,7.60
2023-01-17T04:52:00.460Z,7.70
2023-01-17T04:54:28.506Z,7.60
2023-01-17T04:56:56.546Z,7.60
2023-01-17T04:59:24.563Z,7.60
2023-01-17T05:01:53.713Z,7.60
2023-01-17T05:04:21.641Z,7.60
2023-01-17T05:06:49.525Z,7.60
2023-01-17T05:09:17.503Z,7.60
2023-01-17T05:11:45.320Z,7.60
2023-01-17T05:14:13.359Z,7.60
2023-01-17T05:16:41.359Z,7.60
2023-01-17T05:19:09.376Z,7.70
2023-01-17T05:21:37.359Z,7.70
2023-01-17T05:24:05.402Z,7.70
2023-01-17T05:26:33.459Z,7.70
2023-01-17T05:29:01.295Z,7.70
2023-01-17T05:31:29.282Z,7.70
2023-01-17T05:33:57.170Z,7.70
2023-01-17T05:36:25.058Z,7.70
2023-01-17T05:38:53.019Z,7.80
2023-01-17T05:41:20.872Z,7.80
2023-01-17T05:43:48.833Z,7.80
2023-01-17T05:46:18.381Z,7.80
2023-01-17T05:48:46.346Z,7.80
2023-01-17T05:51:14.240Z,7.80
2023-01-17T05:53:42.137Z,7.80
2023-01-17T05:56:09.991Z,7.70
2023-01-17T05:58:37.929Z,7.70
2023-01-17T06:01:06.064Z,7.80
2023-01-17T06:03:34.007Z,7.80
2023-01-17T06:06:01.866Z,7.80
2023-01-17T06:08:29.836Z,7.80
2023-01-17T06:11:01.005Z,7.80
2023-01-17T06:13:29.020Z,7.80
2023-01-17T06:16:03.019Z,7.70
2023-01-17T06:18:31.666Z,7.70
2023-01-17T06:20:59.832Z,7.80
2023-01-17T06:23:28.605Z,7.80
2023-01-17T06:25:56.568Z,7.90
2023-01-17T06:28:24.546Z,7.90
2023-01-17T06:30:52.354Z,7.90
2023-01-17T06:33:20.304Z,8.00
2023-01-17T06:35:49.418Z,8.00
2023-01-17T06:38:17.631Z,8.10
2023-01-17T06:40:45.590Z,8.20
2023-01-17T06:43:13.642Z,8.30
2023-01-17T06:45:41.612Z,8.40
2023-01-17T06:48:09.591Z,8.50
2023-01-17T06:50:38.388Z,8.60
2023-01-17T06:53:08.073Z,9.00
2023-01-17T06:55:39.843Z,9.40
2023-01-17T06:58:09.202Z,9.50
2023-01-17T07:00:39.540Z,10.00
2023-01-17T07:03:19.599Z,10.90
2023-01-17T07:05:47.879Z,11.10
2023-01-17T07:08:17.330Z,11.10
2023-01-17T07:10:46.043Z,11.30
2023-01-17T07:13:14.370Z,11.80
2023-01-17T07:15:45.456Z,11.60
2023-01-17T07:18:13.464Z,11.50
2023-01-17T07:20:44.158Z,11.20
2023-01-17T07:23:12.101Z,11.40
2023-01-17T07:25:40.272Z,11.80
2023-01-17T07:28:08.545Z,12.10
2023-01-17T07:30:37.086Z,12.20
2023-01-17T07:33:05.866Z,12.60
2023-01-17T07:35:34.364Z,12.80
2023-01-17T07:38:02.310Z,13.10
2023-01-17T07:40:30.804Z,13.30
2023-01-17T07:43:02.414Z,13.20
2023-01-17T07:45:32.466Z,13.30
2023-01-17T07:48:00.350Z,13.30
2023-01-17T07:50:28.190Z,13.30
2023-01-17T07:52:56.750Z,13.30
2023-01-17T07:55:24.637Z,13.50
2023-01-17T07:57:52.611Z,13.60
2023-01-17T08:00:20.812Z,13.80
2023-01-17T08:02:48.821Z,13.90
2023-01-17T08:05:16.895Z,14.10
2023-01-17T08:07:44.854Z,14.30
2023-01-17T08:10:18.247Z,14.80
2023-01-17T08:12:47.306Z,15.10
2023-01-17T08:15:18.801Z,15.50
2023-01-17T08:17:47.551Z,15.60
2023-01-17T08:20:16.491Z,15.70
2023-01-17T08:22:44.455Z,15.80
2023-01-17T08:25:13.006Z,15.90
2023-01-17T08:27:41.201Z,16.00
2023-01-17T08:30:09.361Z,16.40
2023-01-17T08:32:41.059Z,16.80
2023-01-17T08:35:09.319Z,17.10
2023-01-17T08:37:38.238Z,17.40
2023-01-17T08:40:06.762Z,17.70
2023-01-17T08:42:41.315Z,17.80
2023-01-17T08:45:10.256Z,17.90
2023-01-17T08:47:38.210Z,18.00
2023-01-17T08:50:07.191Z,18.10
2023-01-17T08:52:35.421Z,18.20
2023-01-17T08:55:06.100Z,18.20
2023-01-17T08:57:34.127Z,18.20
2023-01-17T09:00:02.209Z,18.00
2023-01-17T09:02:31.564Z,17.90
2023-01-17T09:05:02.205Z,17.80
2023-01-17T09:07:30.187Z,17.70
2023-01-17T09:09:58.268Z,17.60
2023-01-17T09:12:26.497Z,17.70
2023-01-17T09:14:54.460Z,17.70
2023-01-17T09:17:22.515Z,17.90
2023-01-17T09:19:50.370Z,18.10
2023-01-17T09:22:18.276Z,18.40
2023-01-17T09:24:46.326Z,18.80
2023-01-17T09:27:14.352Z,19.20
2023-01-17T09:29:42.213Z,19.60
2023-01-17T09:32:10.214Z,19.70
2023-01-17T09:34:38.239Z,19.70
2023-01-17T09:37:06.256Z,19.80
2023-01-17T09:39:34.181Z,20.00
2023-01-17T09:42:02.076Z,20.40
2023-01-17T09:44:35.739Z,20.50
2023-01-17T09:47:14.025Z,20.90
2023-01-17T09:49:45.906Z,21.40
2023-01-17T09:52:18.871Z,21.50
2023-01-17T09:54:48.161Z,21.40
2023-01-17T09:57:28.355Z,21.20
2023-01-17T10:00:09.909Z,21.10
2023-01-17T10:02:44.254Z,21.20
2023-01-17T10:05:31.090Z,21.20
2023-01-17T10:08:17.766Z,21.20
2023-01-17T10:11:00.340Z,21.20
2023-01-17T10:13:34.147Z,21.20
2023-01-17T10:16:08.764Z,21.40
2023-01-17T10:18:36.650Z,21.60
2023-01-17T10:21:04.571Z,21.90
2023-01-17T10:23:38.615Z,22.20
2023-01-17T10:26:25.520Z,22.40
2023-01-17T10:28:55.039Z,22.50
2023-01-17T10:31:24.253Z,22.40
2023-01-17T10:33:53.295Z,22.50
2023-01-17T10:36:22.573Z,22.60
2023-01-17T10:39:10.754Z,22.60
2023-01-17T10:41:42.110Z,22.50
2023-01-17T10:44:20.181Z,22.20
2023-01-17T10:46:52.273Z,22.20
2023-01-17T10:49:21.700Z,22.20
2023-01-17T10:52:03.539Z,22.10
2023-01-17T10:54:40.659Z,22.20
2023-01-17T10:57:28.890Z,22.10
2023-01-17T10:59:58.930Z,22.10
2023-01-17T11:02:30.466Z,22.00
2023-01-17T11:05:03.868Z,21.90
2023-01-17T11:07:31.828Z,21.80
2023-01-17T11:09:59.746Z,21.90
2023-01-17T11:12:29.740Z,21.90
2023-01-17T11:14:58.948Z,21.90
2023-01-17T11:17:27.911Z,21.90
2023-01-17T11:20:06.708Z,21.90
2023-01-17T11:22:35.388Z,22.00
2023-01-17T11:25:03.759Z,22.00
2023-01-17T11:27:33.867Z,22.00
2023-01-17T11:30:07.980Z,22.00
2023-01-17T11:32:36.159Z,22.10
2023-01-17T11:35:10.382Z,22.10
2023-01-17T11:37:38.987Z,22.20
2023-01-17T11:40:19.233Z,22.20
2023-01-17T11:42:47.321Z,22.20
2023-01-17T11:45:47.689Z,22.30
2023-01-17T11:48:17.214Z,22.20
2023-01-17T11:50:54.754Z,22.30
2023-01-17T11:53:27.044Z,22.30
2023-01-17T11:56:33.599Z,22.40
2023-01-17T11:59:18.231Z,22.60
2023-01-17T12:01:50.325Z,22.80
2023-01-17T12:04:30.181Z,22.70
2023-01-17T12:07:09.892Z,22.70
2023-01-17T12:09:45.761Z,22.60
2023-01-17T12:13:01.400Z,22.60
2023-01-17T12:15:35.747Z,22.50
2023-01-17T12:18:15.731Z,22.60
2023-01-17T12:20:52.683Z,22.60
2023-01-17T12:23:20.666Z,22.70
2023-01-17T12:25:48.787Z,22.70
2023-01-17T12:28:31.563Z,22.70
2023-01-17T12:31:11.908Z,22.80
2023-01-17T12:33:39.937Z,23.10
2023-01-17T12:36:34.393Z,23.80
2023-01-17T12:39:06.993Z,24.40
2023-01-17T12:41:53.519Z,24.10
2023-01-17T12:44:34.579Z,23.40
2023-01-17T12:47:03.948Z,23.00
2023-01-17T12:49:47.406Z,22.60
2023-01-17T12:52:34.094Z,22.30
2023-01-17T12:55:14.843Z,22.10
2023-01-17T12:57:45.725Z,22.00
2023-01-17T13:00:23.573Z,22.00
2023-01-17T13:02:58.026Z,22.10
2023-01-17T13:05:30.088Z,22.20
2023-01-17T13:08:16.989Z,22.70
2023-01-17T13:10:55.462Z,23.70
2023-01-17T13:13:24.522Z,25.10
2023-01-17T13:16:03.482Z,25.50
2023-01-17T13:18:33.631Z,25.10
2023-01-17T13:21:20.178Z,24.40
2023-01-17T13:23:56.235Z,24.40
2023-01-17T13:26:36.901Z,24.30
2023-01-17T13:29:04.961Z,23.60
2023-01-17T13:31:53.406Z,23.00
2023-01-17T13:34:40.073Z,22.70
2023-01-17T13:37:11.023Z,22.80
2023-01-17T13:39:47.611Z,22.60
2023-01-17T13:42:23.522Z,22.30
2023-01-17T13:44:51.532Z,22.00
2023-01-17T13:47:19.553Z,21.70
2023-01-17T13:49:56.609Z,21.40
2023-01-17T13:52:24.583Z,21.20
2023-01-17T13:54:57.037Z,21.00
2023-01-17T13:57:33.101Z,20.90
2023-01-17T14:00:21.765Z,20.70
2023-01-17T14:02:50.649Z,20.50
2023-01-17T14:05:23.402Z,20.40
2023-01-17T14:07:59.853Z,20.20
2023-01-17T14:10:27.692Z,20.10
2023-01-17T14:12:56.025Z,19.90
2023-01-17T14:15:25.748Z,19.80
2023-01-17T14:18:04.096Z,19.70
2023-01-17T14:20:38.761Z,19.50
2023-01-17T14:23:26.931Z,19.40
2023-01-17T14:25:58.338Z,19.30
2023-01-17T14:28:31.128Z,19.10
2023-01-17T14:31:00.219Z,19.00
2023-01-17T14:33:35.876Z,18.90
2023-01-17T14:36:04.836Z,18.70
2023-01-17T14:38:34.128Z,18.60
2023-01-17T14:41:04.910Z,18.40
2023-01-17T14:43:33.527Z,18.30
2023-01-17T14:46:05.898Z,18.10
2023-01-17T14:48:34.552Z,18.00
2023-01-17T14:51:11.965Z,17.90
2023-01-17T14:53:40.231Z,17.70
2023-01-17T14:56:14.980Z,17.60
2023-01-17T14:58:43.085Z,17.50
2023-01-17T15:01:20.582Z,17.40
2023-01-17T15:03:50.748Z,17.30
2023-01-17T15:06:20.224Z,17.20
2023-01-17T15:08:48.849Z,17.00
2023-01-17T15:11:18.793Z,17.00
2023-01-17T15:13:49.788Z,16.90
2023-01-17T15:16:17.733Z,16.80
2023-01-17T15:18:45.674Z,16.70
2023-01-17T15:21:16.527Z,16.60
2023-01-17T15:23:46.153Z,16.50
2023-01-17T15:26:15.388Z,16.40
2023-01-17T15:28:45.141Z,16.30
2023-01-17T15:31:15.847Z,16.20
2023-01-17T15:33:45.620Z,16.10
2023-01-17T15:36:16.686Z,16.10
2023-01-17T15:38:49.759Z,16.00
2023-01-17T15:41:21.414Z,15.90
2023-01-17T15:43:49.615Z,15.80
2023-01-17T15:46:21.645Z,15.70
2023-01-17T15:48:51.966Z,15.70
2023-01-17T15:51:33.827Z,15.60
2023-01-17T15:54:24.217Z,15.50
2023-01-17T15:57:05.366Z,15.40
2023-01-17T15:59:44.303Z,15.40
2023-01-17T16:02:23.935Z,15.40
2023-01-17T16:04:51.963Z,15.30
2023-01-17T16:07:27.999Z,15.30
2023-01-17T16:10:02.221Z,15.30
2023-01-17T16:12:30.254Z,15.30
2023-01-17T16:15:11.122Z,15.30
2023-01-17T16:17:42.720Z,15.30
2023-01-17T16:20:16.203Z,15.20
2023-01-17T16:22:44.346Z,15.30
2023-01-17T16:25:16.304Z,15.30
2023-01-17T16:27:44.458Z,15.30
2023-01-17T16:30:15.779Z,15.30
2023-01-17T16:32:47.262Z,15.20
2023-01-17T16:35:22.085Z,15.30
2023-01-17T16:37:50.437Z,15.20
2023-01-17T16:40:22.960Z,15.20
2023-01-17T16:42:51.229Z,15.20
2023-01-17T16:45:19.342Z,15.10
2023-01-17T16:47:48.219Z,15.10
2023-01-17T16:50:18.066Z,15.10
2023-01-17T16:52:46.059Z,15.10
2023-01-17T16:55:15.105Z,15.00
2023-01-17T16:57:43.864Z,15.00
2023-01-17T17:00:12.613Z,15.00
2023-01-17T17:02:41.061Z,14.90
2023-01-17T17:05:09.664Z,14.90
2023-01-17T17:07:43.152Z,14.90
2023-01-17T17:10:11.526Z,14.90
2023-01-17T17:12:39.425Z,14.80
2023-01-17T17:15:07.677Z,14.80
2023-01-17T17:17:39.516Z,14.80
2023-01-17T17:20:15.023Z,14.80
2023-01-17T17:22:44.337Z,14.80
2023-01-17T17:25:12.447Z,14.80
2023-01-17T17:27:40.447Z,14.80
2023-01-17T17:30:08.829Z,14.70
2023-01-17T17:32:36.950Z,14.70
2023-01-17T17:35:05.426Z,14.70
2023-01-17T17:37:33.936Z,14.70
2023-01-17T17:40:01.895Z,14.70
2023-01-17T17:42:30.180Z,14.70
2023-01-17T17:44:58.137Z,14.70
2023-01-17T17:47:26.154Z,14.70
2023-01-17T17:49:54.180Z,14.70
2023-01-17T17:52:22.161Z,14.70
2023-01-17T17:54:50.074Z,14.60
2023-01-17T17:57:18.052Z,14.60
2023-01-17T17:59:45.940Z,14.50
2023-01-17T18:02:14.092Z,14.50
2023-01-17T18:04:42.012Z,14.50
2023-01-17T18:07:10.126Z,14.50
2023-01-17T18:09:39.606Z,14.40
2023-01-17T18:12:07.835Z,14.30
2023-01-17T18:14:36.485Z,14.30
2023-01-17T18:17:04.419Z,14.30
2023-01-17T18:19:35.551Z,14.20
2023-01-17T18:22:04.066Z,14.20
2023-01-17T18:24:32.145Z,14.10
2023-01-17T18:26:59.972Z,14.10
2023-01-17T18:29:27.954Z,14.00
2023-01-17T18:31:56.235Z,14.00
2023-01-17T18:34:27.312Z,14.00
2023-01-17T18:36:55.486Z,13.90
2023-01-17T18:39:24.950Z,13.80
2023-01-17T18:41:53.433Z,13.90
2023-01-17T18:44:22.555Z,13.90
2023-01-17T18:46:51.310Z,13.90
2023-01-17T18:49:19.611Z,13.90
2023-01-17T18:51:51.454Z,13.80
2023-01-17T18:54:20.197Z,13.80
2023-01-17T18:56:48.508Z,13.80
2023-01-17T18:59:18.759Z,13.70
2023-01-17T19:01:47.012Z,13.70
2023-01-17T19:04:16.191Z,13.60
2023-01-17T19:06:45.390Z,13.60
2023-01-17T19:09:14.099Z,13.60
2023-01-17T19:11:44.736Z,13.50
2023-01-17T19:14:13.231Z,13.50
2023-01-17T19:16:41.988Z,13.40
2023-01-17T19:19:11.547Z,13.40
2023-01-17T19:21:39.500Z,13.30
2023-01-17T19:24:11.150Z,13.30
2023-01-17T19:26:39.453Z,13.30
2023-01-17T19:29:07.393Z,13.30
2023-01-17T19:31:45.599Z,13.20
2023-01-17T19:34:14.989Z,13.20
2023-01-17T19:36:43.481Z,13.20
2023-01-17T19:39:12.033Z,13.10
2023-01-17T19:41:44.882Z,13.10
2023-01-17T19:44:13.917Z,13.10
2023-01-17T19:46:41.766Z,13.10
2023-01-17T19:49:09.748Z,13.00
2023-01-17T19:51:39.733Z,13.00
2023-01-17T19:54:08.674Z,13.00
2023-01-17T19:56:36.663Z,12.90
2023-01-17T19:59:04.769Z,12.90
2023-01-17T20:01:33.632Z,12.90
2023-01-17T20:04:02.079Z,12.80
2023-01-17T20:06:31.370Z,12.80
2023-01-17T20:08:59.669Z,12.80
2023-01-17T20:11:28.242Z,12.80
2023-01-17T20:13:57.926Z,12.80
2023-01-17T20:16:26.710Z,12.70
2023-01-17T20:18:54.769Z,12.70
2023-01-17T20:21:24.014Z,12.70
2023-01-17T20:23:53.227Z,12.60
2023-01-17T20:26:22.906Z,12.60
2023-01-17T20:28:51.860Z,12.50
2023-01-17T20:31:21.662Z,12.50
2023-01-17T20:33:52.671Z,12.50
2023-01-17T20:36:21.859Z,12.40
2023-01-17T20:38:50.088Z,12.40
2023-01-17T20:41:19.761Z,12.30
2023-01-17T20:43:51.874Z,12.30
2023-01-17T20:46:20.708Z,12.30
2023-01-17T20:48:49.308Z,12.20
2023-01-17T20:51:18.248Z,12.10
2023-01-17T20:53:47.145Z,12.10
2023-01-17T20:56:15.742Z,12.10
2023-01-17T20:58:44.243Z,12.10
2023-01-17T21:01:12.962Z,12.10
2023-01-17T21:03:41.002Z,12.10
2023-01-17T21:06:10.543Z,12.00
2023-01-17T21:08:39.426Z,12.00
2023-01-17T21:11:08.803Z,12.10
2023-01-17T21:13:36.829Z,12.10
2023-01-17T21:16:05.186Z,12.10
2023-01-17T21:18:33.311Z,12.10
2023-01-17T21:21:05.979Z,12.20
2023-01-17T21:23:34.511Z,12.20
2023-01-17T21:26:02.380Z,12.20
2023-01-17T21:28:31.439Z,12.20
2023-01-17T21:30:59.635Z,12.20
2023-01-17T21:33:29.729Z,12.20
2023-01-17T21:36:06.034Z,12.30
2023-01-17T21:38:34.135Z,12.30
2023-01-17T21:41:02.093Z,12.20
2023-01-17T21:43:29.956Z,12.20
2023-01-17T21:46:01.521Z,12.20
2023-01-17T21:48:29.571Z,12.30
2023-01-17T21:51:03.353Z,12.30
2023-01-17T21:53:33.379Z,12.20
2023-01-17T21:56:20.092Z,12.20
2023-01-17T21:58:49.604Z,12.20
2023-01-17T22:01:18.456Z,12.20
2023-01-17T22:03:48.704Z,12.10
2023-01-17T22:06:16.970Z,12.10
2023-01-17T22:08:45.446Z,12.10
2023-01-17T22:11:14.384Z,12.10
2023-01-17T22:13:43.033Z,12.10
2023-01-17T22:16:12.653Z,12.10
2023-01-17T22:18:41.363Z,12.20
2023-01-17T22:21:12.239Z,12.20
2023-01-17T22:23:41.169Z,12.20
2023-01-17T22:26:10.221Z,12.20
2023-01-17T22:28:38.712Z,12.20
2023-01-17T22:31:11.239Z,12.20
2023-01-17T22:33:40.192Z,12.20
2023-01-17T22:36:09.014Z,12.20
2023-01-17T22:38:37.130Z,12.20
2023-01-17T22:41:16.551Z,12.10
2023-01-17T22:43:47.030Z,12.10
2023-01-17T22:46:16.583Z,12.10
2023-01-17T22:48:45.289Z,12.10
2023-01-17T22:51:14.475Z,12.10
2023-01-17T22:53:43.328Z,12.10
2023-01-17T22:56:12.972Z,12.00
2023-01-17T22:58:45.084Z,12.00
2023-01-17T23:01:17.476Z,12.00
2023-01-17T23:03:46.284Z,12.00
2023-01-17T23:06:19.423Z,11.90
2023-01-17T23:08:48.502Z,11.90
2023-01-17T23:11:45.475Z,11.90
2023-01-17T23:14:18.097Z,11.90
2023-01-17T23:17:15.501Z,11.90
2023-01-17T23:19:44.534Z,11.80
2023-01-17T23:22:16.445Z,11.80
2023-01-17T23:24:46.186Z,11.80
2023-01-17T23:27:34.995Z,11.80
2023-01-17T23:30:07.660Z,11.70
2023-01-17T23:32:35.923Z,11.70
2023-01-17T23:35:04.080Z,11.70
2023-01-17T23:37:50.622Z,11.70
2023-01-17T23:40:19.608Z,11.70
2023-01-17T23:43:05.839Z,11.70
2023-01-17T23:45:40.229Z,11.70
2023-01-17T23:48:09.791Z,11.70
2023-01-17T23:50:38.626Z,11.60
2023-01-17T23:53:09.639Z,11.60
2023-01-17T23:55:41.473Z,11.60
2023-01-17T23:58:10.559Z,11.50
